Terminal Aerodrome Forecast
Issued by NWS Mobile, AL

Home | Current Version | Previous Version | Text Only | Print | Product List | Glossary On
Versions: 1 2 3 4 5 6 7 8 9 10 11 12 13 14 15 16 17 18 19 20 21 22 23 24 25 26 27 28 29 30 31 32 33 34 35 36 37 38 39 40
872
FTUS44 KMOB 291131
TAFMOB
TAF
KMOB 291131Z 2912/3012 33003KT P6SM FEW030 SCT110 BKN250
     FM291400 02005KT P6SM VCTS BKN040CB
      TEMPO 2915/2919 VRB15G25KT 3SM TSRA BKN030CB
     FM300100 18003KT P6SM VCTS BKN050CB BKN150=

USA.gov is the U.S. government's official web portal to all federal, state and local government web resources and services.